Aeroporto :
LOGIN :

Iscrizione | Disclaimer

   EN    FR    IT 

 










Sommario :    VFR   VFR Marginale   IFR   IFR Intensivo   IFR Molto Intensivo
Visibilità : 
Base nubi : 
>= 8 km
>= 3000ft
5 / 8 km
1000 / 3000 ft
1500m / 5 km
500 / 1000 ft
800 / 1500m
200 / 500 ft
< 800m
< 200 ft
Simboli :   Temporali  Nebbia  Neve Forte  Precipitazioni Forti  Vento > 20 kt
SIGMETs :   Varie  Temporali  Ghiacco  Turbolenza  Onda orograficha  Ceneri Vulcaniche






- Altitudine del aeroporto : 75 ft
- Codice IATA : MRH


EGYM - RAF Marham

ULTIMO METAR :
  • 251820Z 30006KT 9999 BKN045 07/06 Q1015 NOSIG RMK BLU BLU

METARs OBSOLETI :
  • 251750Z 29006KT 9999 BKN040 07/07 Q1015 BLU NOSIG RMK BLU BLU
  • 251721Z 31006KT 9999 FEW010 BKN040 07/06 Q1014 NOSIG RMK BLU BLU
  • 251650Z 32009KT 7000 BR FEW005 SCT010 BKN025 08/07 Q1014 TEMPO 9999 NSW FEW010 BKN025 RMK GRN TEMPO BLU
  • 251618Z 32011KT 2500 -RADZ SCT004 OVC005 08/07 Q1013 BECMG 8000 HZ BKN008 RMK YLO2 BECMG GRN
  • 251550Z 32010KT 4000 -RADZ BKN004 OVC005 08/08 Q1013 BECMG 4000 HZ SCT006 RMK YLO2 BECMG YLO1

TAF AMD TAF EGYM
Valido dal 25 a 18 ore il 25 a 21 ore UTC


251704Z 2518/2521 31008KT 6000 HZ SCT008 OVC015
BECMG 2518/2520 9999 NSW FEW020



MetMap, La meteo Aeronautica in un colpo d'occhio ! - Copyright ORBIFLY Dicembre 2007 - Disclaimer

ORBIFLY MET'MAP TEAM :

Programmazione e sviluppo : Alexandra Zaïnal
Concezione : Baudouin d'Aumeries
Aiuto per la programmazione : Marc-Olivier Méhu
Supporto tecnico e logistico : Manuel Goepfert
Aiuto per la traduzione : Arnaldo La Scala

Contatto : metmap@orbifly.com




FONTI E CREDITI :

   NOAA